createdAt,value
2019-03-19T00:00:21.654Z,3.37
2019-03-19T00:02:51.117Z,4.60
2019-03-19T00:05:20.640Z,4.20
2019-03-19T00:07:50.153Z,4.00
2019-03-19T00:10:19.598Z,4.30
2019-03-19T00:12:49.049Z,4.50
2019-03-19T00:15:18.572Z,4.10
2019-03-19T00:17:48.066Z,3.50
2019-03-19T00:20:17.529Z,4.23
2019-03-19T00:22:46.982Z,4.20
2019-03-19T00:25:16.862Z,3.73
2019-03-19T00:27:46.691Z,4.03
2019-03-19T00:30:19.293Z,4.07
2019-03-19T00:32:48.743Z,4.03
2019-03-19T00:35:18.202Z,3.80
2019-03-19T00:37:47.659Z,4.13
2019-03-19T00:40:17.124Z,3.93
2019-03-19T00:42:46.634Z,3.57
2019-03-19T00:45:16.118Z,3.73
2019-03-19T00:47:45.581Z,4.10
2019-03-19T00:50:15.785Z,12.40
2019-03-19T00:52:45.257Z,7.13
2019-03-19T00:55:14.869Z,4.90
2019-03-19T00:57:44.574Z,4.13
2019-03-19T01:00:18.126Z,4.53
2019-03-19T01:02:47.844Z,4.53
2019-03-19T01:05:17.725Z,3.43
2019-03-19T01:07:47.356Z,3.67
2019-03-19T01:10:17.692Z,3.40
2019-03-19T01:12:47.346Z,4.10
2019-03-19T01:15:16.800Z,3.30
2019-03-19T01:17:46.281Z,3.90
2019-03-19T01:20:16.384Z,3.67
2019-03-19T01:22:45.854Z,3.27
2019-03-19T01:25:15.309Z,2.90
2019-03-19T01:27:44.775Z,3.00
2019-03-19T01:30:15.448Z,2.90
2019-03-19T01:32:44.918Z,2.83
2019-03-19T01:35:14.378Z,2.73
2019-03-19T01:37:44.156Z,3.90
2019-03-19T01:40:13.851Z,2.53
2019-03-19T01:42:43.791Z,2.83
2019-03-19T01:45:13.984Z,2.80
2019-03-19T01:47:43.447Z,3.07
2019-03-19T01:50:14.495Z,2.93
2019-03-19T01:52:44.345Z,2.97
2019-03-19T01:55:14.800Z,3.00
2019-03-19T01:57:44.258Z,3.70
2019-03-19T02:00:15.144Z,2.47
2019-03-19T02:02:44.606Z,3.40
2019-03-19T02:05:14.345Z,2.90
2019-03-19T02:07:44.176Z,2.50
2019-03-19T02:10:14.570Z,3.13
2019-03-19T02:12:44.310Z,2.83
2019-03-19T02:15:15.449Z,2.90
2019-03-19T02:17:45.499Z,3.43
2019-03-19T02:20:16.171Z,2.90
2019-03-19T02:22:45.917Z,3.33
2019-03-19T02:25:15.546Z,3.17
2019-03-19T02:27:45.192Z,3.10
2019-03-19T02:30:16.622Z,2.97
2019-03-19T02:32:46.158Z,3.00
2019-03-19T02:35:15.989Z,3.47
2019-03-19T02:37:45.526Z,2.83
2019-03-19T02:40:16.917Z,3.27
2019-03-19T02:42:46.355Z,2.97
2019-03-19T02:45:17.143Z,2.67
2019-03-19T02:47:46.620Z,2.73
2019-03-19T02:50:17.188Z,2.90
2019-03-19T02:52:46.730Z,3.40
2019-03-19T02:55:16.170Z,2.90
2019-03-19T02:57:45.966Z,3.20
2019-03-19T03:00:16.571Z,3.50
2019-03-19T03:02:46.098Z,3.70
2019-03-19T03:05:17.083Z,3.13
2019-03-19T03:07:46.901Z,3.40
2019-03-19T03:10:16.323Z,3.43
2019-03-19T03:12:45.882Z,3.43
2019-03-19T03:15:16.345Z,3.50
2019-03-19T03:17:45.829Z,4.00
2019-03-19T03:20:16.132Z,3.70
2019-03-19T03:22:45.593Z,3.97
2019-03-19T03:25:16.345Z,4.00
2019-03-19T03:27:45.803Z,3.83
2019-03-19T03:30:20.041Z,4.20
2019-03-19T03:32:50.051Z,3.77
2019-03-19T03:35:19.884Z,3.80
2019-03-19T03:37:49.356Z,3.40
2019-03-19T03:40:19.916Z,3.90
2019-03-19T03:42:49.448Z,3.40
2019-03-19T03:45:23.755Z,3.87
2019-03-19T03:47:53.567Z,3.70
2019-03-19T03:50:23.021Z,4.40
2019-03-19T03:52:52.479Z,3.17
2019-03-19T03:55:21.951Z,3.97
2019-03-19T03:57:51.917Z,3.13
2019-03-19T04:00:23.479Z,3.53
2019-03-19T04:02:53.245Z,3.27
2019-03-19T04:05:22.746Z,3.73
2019-03-19T04:07:52.401Z,3.30
2019-03-19T04:10:22.029Z,3.57
2019-03-19T04:12:51.545Z,3.80
2019-03-19T04:15:21.451Z,3.00
2019-03-19T04:17:51.061Z,3.23
2019-03-19T04:20:20.521Z,3.23
2019-03-19T04:22:49.992Z,3.33
2019-03-19T04:25:19.696Z,3.53
2019-03-19T04:27:49.200Z,3.80
2019-03-19T04:30:19.955Z,3.10
2019-03-19T04:32:49.481Z,3.90
2019-03-19T04:35:18.973Z,3.37
2019-03-19T04:37:48.438Z,3.20
2019-03-19T04:40:17.906Z,4.13
2019-03-19T04:42:47.372Z,3.67
2019-03-19T04:45:19.495Z,4.00
2019-03-19T04:47:48.994Z,3.13
2019-03-19T04:50:18.488Z,3.57
2019-03-19T04:52:47.948Z,3.40
2019-03-19T04:55:17.665Z,3.70
2019-03-19T04:57:47.130Z,3.53
2019-03-19T05:00:18.794Z,3.73
2019-03-19T05:02:48.268Z,3.80
2019-03-19T05:05:18.096Z,4.20
2019-03-19T05:07:47.543Z,4.50
2019-03-19T05:10:17.946Z,3.60
2019-03-19T05:12:47.390Z,3.87
2019-03-19T05:15:16.875Z,4.27
2019-03-19T05:17:46.315Z,3.60
2019-03-19T05:20:18.868Z,4.37
2019-03-19T05:22:48.669Z,4.30
2019-03-19T05:25:18.305Z,4.03
2019-03-19T05:27:47.763Z,4.23
2019-03-19T05:30:21.576Z,3.87
2019-03-19T05:32:51.403Z,3.87
2019-03-19T05:35:20.859Z,4.40
2019-03-19T05:37:50.384Z,3.93
2019-03-19T05:40:19.880Z,3.90
2019-03-19T05:42:49.320Z,4.03
2019-03-19T05:45:18.783Z,4.33
2019-03-19T05:47:48.231Z,4.20
2019-03-19T05:50:22.391Z,4.20
2019-03-19T05:52:51.868Z,3.83
2019-03-19T05:55:21.405Z,4.37
2019-03-19T05:57:52.588Z,4.63
2019-03-19T06:00:23.926Z,4.67
2019-03-19T06:02:53.374Z,4.40
2019-03-19T06:05:23.159Z,3.90
2019-03-19T06:07:52.622Z,4.90
2019-03-19T06:10:22.090Z,3.73
2019-03-19T06:12:51.533Z,3.93
2019-03-19T06:15:20.999Z,3.33
2019-03-19T06:17:50.451Z,4.00
2019-03-19T06:20:20.458Z,3.73
2019-03-19T06:22:49.914Z,4.00
2019-03-19T06:25:19.410Z,3.23
2019-03-19T06:27:59.565Z,4.10
2019-03-19T06:30:21.619Z,3.30
2019-03-19T06:32:51.491Z,3.60
2019-03-19T06:35:21.299Z,4.00
2019-03-19T06:37:51.118Z,3.90
2019-03-19T06:40:21.534Z,3.40
2019-03-19T06:42:51.062Z,4.53
2019-03-19T06:45:23.069Z,4.67
2019-03-19T06:47:52.485Z,4.27
2019-03-19T06:50:22.555Z,5.00
2019-03-19T06:52:52.356Z,4.23
2019-03-19T06:55:22.170Z,4.27
2019-03-19T06:57:51.624Z,3.53
2019-03-19T07:00:24.380Z,3.23
2019-03-19T07:02:53.851Z,4.27
2019-03-19T07:05:23.801Z,4.13
2019-03-19T07:07:53.595Z,4.07
2019-03-19T07:10:23.049Z,4.07
2019-03-19T07:12:52.520Z,3.53
2019-03-19T07:15:23.049Z,4.27
2019-03-19T07:20:35.626Z,3.80
2019-03-19T07:23:05.337Z,3.40
2019-03-19T07:25:34.797Z,4.33
2019-03-19T07:28:05.089Z,9.77
2019-03-19T07:30:35.333Z,4.93
2019-03-19T07:33:04.923Z,13.10
2019-03-19T07:35:34.389Z,12.87
2019-03-19T07:38:03.844Z,10.93
2019-03-19T07:40:33.608Z,5.57
2019-03-19T07:43:03.121Z,5.53
2019-03-19T07:45:32.927Z,5.10
2019-03-19T07:48:02.381Z,3.50
2019-03-19T07:50:31.831Z,2.97
2019-03-19T07:53:01.564Z,3.43
2019-03-19T07:55:31.031Z,3.40
2019-03-19T07:58:00.761Z,3.47
2019-03-19T08:00:30.582Z,3.67
2019-03-19T08:03:00.025Z,4.00
2019-03-19T08:05:33.389Z,3.50
2019-03-19T08:08:00.635Z,3.90
2019-03-19T08:10:30.077Z,4.10
2019-03-19T08:12:59.531Z,4.10
2019-03-19T08:15:28.997Z,3.77
2019-03-19T08:17:58.438Z,4.30
2019-03-19T08:20:27.915Z,4.37
2019-03-19T08:22:57.665Z,3.67
2019-03-19T08:25:27.123Z,4.10
2019-03-19T08:27:56.881Z,4.50
2019-03-19T08:30:26.964Z,4.93
2019-03-19T08:32:56.456Z,2.60
2019-03-19T08:35:25.905Z,4.27
2019-03-19T08:37:55.364Z,5.80
2019-03-19T08:40:25.121Z,5.90
2019-03-19T08:42:54.576Z,6.40
2019-03-19T08:45:26.321Z,8.03
2019-03-19T08:47:56.034Z,8.00
2019-03-19T08:50:26.048Z,6.90
2019-03-19T08:52:55.823Z,6.77
2019-03-19T08:55:25.360Z,6.60
2019-03-19T08:57:54.844Z,6.20
2019-03-19T09:00:26.456Z,6.47
2019-03-19T09:02:55.912Z,5.63
2019-03-19T09:05:25.826Z,5.97
2019-03-19T09:07:55.349Z,5.97
2019-03-19T09:10:24.894Z,6.17
2019-03-19T09:12:54.339Z,6.27
2019-03-19T09:15:26.195Z,5.80
2019-03-19T09:17:55.650Z,5.70
2019-03-19T09:20:25.101Z,5.50
2019-03-19T09:22:54.557Z,5.30
2019-03-19T09:25:24.429Z,8.00
2019-03-19T09:27:53.905Z,5.80
2019-03-19T09:30:24.366Z,4.67
2019-03-19T09:32:53.823Z,4.73
2019-03-19T09:35:23.326Z,4.40
2019-03-19T09:37:58.253Z,3.67
2019-03-19T09:40:23.964Z,4.20
2019-03-19T09:42:53.431Z,3.77
2019-03-19T09:45:22.867Z,5.03
2019-03-19T09:47:52.327Z,4.27
2019-03-19T09:50:27.909Z,4.43
2019-03-19T09:52:57.382Z,4.23
2019-03-19T09:55:26.831Z,4.67
2019-03-19T09:57:56.361Z,4.40
2019-03-19T10:00:25.815Z,4.03
2019-03-19T10:02:55.270Z,5.07
2019-03-19T10:05:24.728Z,4.10
2019-03-19T10:07:55.684Z,4.00
2019-03-19T10:10:25.450Z,4.57
2019-03-19T10:12:54.863Z,4.50
2019-03-19T10:15:24.317Z,4.57
2019-03-19T10:17:54.044Z,3.60
2019-03-19T10:20:24.845Z,3.87
2019-03-19T10:22:54.305Z,4.77
2019-03-19T10:25:23.770Z,3.97
2019-03-19T10:27:53.215Z,2.80
2019-03-19T10:30:24.404Z,3.33
2019-03-19T10:32:53.870Z,2.87
2019-03-19T10:35:23.320Z,2.73
2019-03-19T10:37:52.803Z,2.63
2019-03-19T10:40:22.634Z,1.97
2019-03-19T10:42:52.104Z,2.43
2019-03-19T10:45:23.597Z,2.20
2019-03-19T10:47:53.055Z,1.50
2019-03-19T10:50:23.798Z,1.60
2019-03-19T10:53:12.880Z,2.00
2019-03-19T10:55:42.327Z,1.90
2019-03-19T10:58:11.792Z,2.90
2019-03-19T11:00:41.333Z,2.30
2019-03-19T11:03:10.790Z,3.27
2019-03-19T11:05:40.240Z,2.33
2019-03-19T11:08:09.699Z,2.83
2019-03-19T11:10:39.153Z,2.67
2019-03-19T11:13:08.613Z,3.10
2019-03-19T11:15:38.338Z,2.87
2019-03-19T11:18:08.087Z,3.13
2019-03-19T11:20:37.531Z,2.30
2019-03-19T11:23:06.995Z,2.53
2019-03-19T11:25:36.435Z,2.40
2019-03-19T11:28:05.891Z,2.53
2019-03-19T11:30:35.332Z,2.90
2019-03-19T11:33:05.129Z,2.93
2019-03-19T11:35:34.570Z,3.10
2019-03-19T11:38:04.396Z,2.83
2019-03-19T11:40:34.134Z,2.90
2019-03-19T11:43:03.780Z,2.50
2019-03-19T11:45:33.477Z,2.30
2019-03-19T11:48:03.243Z,2.20
2019-03-19T11:50:33.465Z,1.90
2019-03-19T11:53:03.316Z,2.00
2019-03-19T11:55:32.771Z,1.87
2019-03-19T11:58:02.599Z,2.00
2019-03-19T12:00:39.716Z,2.00
2019-03-19T12:03:15.290Z,1.83
2019-03-19T12:05:40.362Z,1.43
2019-03-19T12:08:09.819Z,1.70
2019-03-19T12:10:39.386Z,1.63
2019-03-19T12:13:09.196Z,1.90
2019-03-19T12:15:38.977Z,1.90
2019-03-19T12:18:08.556Z,1.93
2019-03-19T12:20:38.023Z,2.00
2019-03-19T12:23:07.480Z,2.50
2019-03-19T12:25:36.919Z,2.40
2019-03-19T12:28:06.538Z,1.83
2019-03-19T12:30:36.034Z,4.67
2019-03-19T12:33:05.519Z,3.00
2019-03-19T12:35:34.972Z,2.87
2019-03-19T12:38:04.933Z,2.80
2019-03-19T12:40:37.165Z,3.00
2019-03-19T12:43:06.120Z,2.83
2019-03-19T12:45:35.610Z,2.73
2019-03-19T12:48:05.413Z,3.20
2019-03-19T12:50:34.884Z,2.73
2019-03-19T12:53:04.348Z,2.67
2019-03-19T12:55:34.144Z,3.20
2019-03-19T12:58:03.693Z,3.20
2019-03-19T13:00:34.919Z,3.00
2019-03-19T13:03:05.125Z,2.83
2019-03-19T13:05:34.578Z,2.90
2019-03-19T13:08:04.040Z,2.93
2019-03-19T13:10:33.618Z,3.20
2019-03-19T13:13:03.119Z,3.50
2019-03-19T13:15:32.710Z,2.97
2019-03-19T13:18:02.159Z,2.97
2019-03-19T13:20:31.620Z,3.07
2019-03-19T13:23:01.071Z,2.87
2019-03-19T13:25:30.513Z,3.10
2019-03-19T13:27:59.972Z,2.20
2019-03-19T13:30:31.538Z,2.27
2019-03-19T13:33:01.029Z,2.50
2019-03-19T13:35:30.759Z,2.20
2019-03-19T13:38:00.213Z,4.57
2019-03-19T13:40:29.703Z,11.47
2019-03-19T13:42:59.494Z,2.20
2019-03-19T13:45:29.294Z,2.83
2019-03-19T13:47:58.955Z,2.70
2019-03-19T13:50:28.437Z,2.70
2019-03-19T13:52:57.917Z,2.60
2019-03-19T13:55:27.351Z,2.20
2019-03-19T13:57:56.811Z,2.50
2019-03-19T14:00:26.293Z,2.63
2019-03-19T14:03:01.324Z,1.90
2019-03-19T14:08:40.885Z,3.00
2019-03-19T14:11:31.993Z,2.47
2019-03-19T14:14:06.055Z,2.33
2019-03-19T14:16:43.214Z,2.60
2019-03-19T14:19:14.285Z,2.40
2019-03-19T14:21:49.625Z,2.13
2019-03-19T14:24:32.337Z,2.77
2019-03-19T14:27:12.317Z,2.50
2019-03-19T14:29:50.809Z,2.30
2019-03-19T14:32:23.514Z,2.90
2019-03-19T14:34:54.775Z,3.57
2019-03-19T14:37:30.644Z,3.40
2019-03-19T14:40:10.811Z,4.27
2019-03-19T14:42:47.961Z,4.73
2019-03-19T14:45:27.765Z,4.70
2019-03-19T14:47:57.692Z,5.53
2019-03-19T14:50:28.255Z,4.80
2019-03-19T14:53:04.847Z,5.47
2019-03-19T14:55:44.997Z,4.73
2019-03-19T14:58:32.776Z,4.87
2019-03-19T15:01:18.960Z,3.80
2019-03-19T15:03:52.646Z,3.40
2019-03-19T15:06:24.489Z,3.43
2019-03-19T15:08:54.547Z,2.93
2019-03-19T15:11:28.455Z,3.30
2019-03-19T15:14:03.559Z,2.90
2019-03-19T15:16:44.837Z,2.70
2019-03-19T15:19:21.620Z,2.57
2019-03-19T15:22:02.299Z,2.97
2019-03-19T15:24:36.337Z,2.40
2019-03-19T15:27:05.910Z,2.87
2019-03-19T15:29:41.974Z,2.70
2019-03-19T15:32:19.651Z,3.20
2019-03-19T15:34:52.148Z,2.90
2019-03-19T15:37:32.559Z,2.93
2019-03-19T15:43:20.960Z,3.37
2019-03-19T15:45:55.391Z,3.03
2019-03-19T15:48:28.157Z,2.73
2019-03-19T15:51:01.707Z,2.70
2019-03-19T15:53:42.548Z,3.33
2019-03-19T15:56:12.360Z,3.80
2019-03-19T15:58:44.003Z,3.07
2019-03-19T16:01:39.899Z,2.93
2019-03-19T16:04:03.538Z,2.77
2019-03-19T16:06:47.838Z,3.50
2019-03-19T16:09:21.845Z,2.70
2019-03-19T16:11:51.564Z,2.90
2019-03-19T16:14:21.108Z,2.60
2019-03-19T16:16:50.553Z,2.47
2019-03-19T16:19:20.033Z,3.30
2019-03-19T16:21:49.559Z,2.80
2019-03-19T16:24:19.014Z,2.70
2019-03-19T16:26:48.466Z,2.23
2019-03-19T16:29:17.927Z,3.20
2019-03-19T16:31:51.154Z,2.93
2019-03-19T16:34:18.545Z,2.43
2019-03-19T16:36:48.062Z,2.87
2019-03-19T16:39:17.516Z,2.50
2019-03-19T16:41:47.004Z,2.60
2019-03-19T16:44:16.435Z,2.53
2019-03-19T16:46:45.892Z,3.07
2019-03-19T16:49:15.361Z,2.80
2019-03-19T16:51:45.193Z,2.70
2019-03-19T16:54:15.721Z,2.23
2019-03-19T16:56:45.530Z,2.93
2019-03-19T16:59:15.281Z,2.70
2019-03-19T17:01:45.054Z,2.97
2019-03-19T17:04:14.493Z,2.93
2019-03-19T17:06:43.960Z,2.87
2019-03-19T17:09:13.418Z,3.23
2019-03-19T17:11:42.877Z,3.37
2019-03-19T17:14:12.406Z,3.33
2019-03-19T17:16:41.856Z,3.17
2019-03-19T17:19:11.327Z,3.33
2019-03-19T17:21:40.883Z,2.97
2019-03-19T17:24:10.619Z,4.10
2019-03-19T17:26:40.424Z,4.00
2019-03-19T17:29:09.875Z,3.40
2019-03-19T17:31:39.409Z,3.80
2019-03-19T17:34:08.854Z,3.17
2019-03-19T17:36:38.644Z,5.70
2019-03-19T17:39:08.265Z,4.60
2019-03-19T17:41:37.799Z,4.47
2019-03-19T17:44:07.255Z,4.00
2019-03-19T17:46:37.077Z,4.30
2019-03-19T17:49:06.520Z,4.23
2019-03-19T17:51:35.979Z,3.80
2019-03-19T17:54:05.461Z,4.23
2019-03-19T17:56:34.957Z,4.20
2019-03-19T17:59:04.418Z,4.30
2019-03-19T18:01:35.859Z,5.03
2019-03-19T18:04:05.061Z,5.70
2019-03-19T18:06:35.410Z,5.83
2019-03-19T18:09:07.063Z,6.03
2019-03-19T18:11:36.521Z,6.87
2019-03-19T18:14:05.969Z,7.60
2019-03-19T18:16:35.429Z,6.47
2019-03-19T18:19:05.162Z,5.43
2019-03-19T18:21:34.622Z,5.50
2019-03-19T18:24:04.077Z,5.60
2019-03-19T18:26:33.528Z,4.97
2019-03-19T18:29:03.044Z,5.10
2019-03-19T18:31:34.055Z,5.30
2019-03-19T18:34:10.501Z,5.47
2019-03-19T18:36:52.214Z,5.13
2019-03-19T18:39:18.293Z,4.73
2019-03-19T18:41:55.374Z,6.23
2019-03-19T18:44:32.504Z,5.20
2019-03-19T18:47:12.279Z,5.43
2019-03-19T18:49:51.647Z,5.50
2019-03-19T18:52:32.248Z,5.97
2019-03-19T18:55:06.530Z,5.87
2019-03-19T18:57:51.637Z,6.03
2019-03-19T19:00:35.727Z,8.27
2019-03-19T19:03:09.246Z,11.27
2019-03-19T19:05:38.694Z,10.20
2019-03-19T19:08:08.261Z,11.67
2019-03-19T19:10:37.720Z,10.93
2019-03-19T19:13:07.181Z,9.57
2019-03-19T19:15:36.622Z,7.97
2019-03-19T19:18:06.154Z,7.67
2019-03-19T19:20:35.833Z,7.50
2019-03-19T19:23:05.310Z,7.97
2019-03-19T19:25:35.028Z,7.50
2019-03-19T19:28:04.586Z,6.40
2019-03-19T19:30:34.038Z,6.87
2019-03-19T19:33:03.517Z,7.30
2019-03-19T19:35:32.972Z,6.87
2019-03-19T19:38:03.524Z,6.47
2019-03-19T19:40:33.220Z,6.40
2019-03-19T19:43:03.002Z,7.07
2019-03-19T19:45:32.488Z,6.53
2019-03-19T19:48:01.921Z,6.93
2019-03-19T19:50:31.368Z,6.83
2019-03-19T19:53:01.019Z,6.80
2019-03-19T19:55:30.462Z,6.40
2019-03-19T19:57:59.958Z,5.60
2019-03-19T20:00:29.577Z,6.53
2019-03-19T20:02:59.133Z,6.00
2019-03-19T20:05:28.588Z,6.37
2019-03-19T20:07:58.131Z,6.57
2019-03-19T20:10:29.521Z,7.07
2019-03-19T20:12:59.010Z,7.13
2019-03-19T20:15:28.769Z,6.23
2019-03-19T20:17:58.628Z,6.70
2019-03-19T20:20:33.311Z,6.67
2019-03-19T20:23:03.119Z,7.07
2019-03-19T20:25:32.571Z,8.33
2019-03-19T20:28:02.132Z,7.70
2019-03-19T20:30:31.614Z,9.97
2019-03-19T20:33:01.084Z,6.43
2019-03-19T20:35:30.576Z,7.20
2019-03-19T20:38:00.052Z,6.63
2019-03-19T20:40:29.522Z,6.80
2019-03-19T20:42:58.988Z,6.93
2019-03-19T20:45:31.121Z,6.50
2019-03-19T20:48:00.626Z,7.00
2019-03-19T20:50:53.935Z,7.07
2019-03-19T20:53:23.393Z,7.83
2019-03-19T20:55:52.850Z,8.13
2019-03-19T20:58:22.733Z,7.43
2019-03-19T21:00:52.804Z,7.37
2019-03-19T21:03:22.289Z,7.30
2019-03-19T21:05:51.752Z,6.97
2019-03-19T21:08:21.242Z,6.33
2019-03-19T21:10:50.693Z,6.73
2019-03-19T21:13:20.481Z,6.30
2019-03-19T21:15:50.300Z,6.23
2019-03-19T21:18:19.802Z,5.80
2019-03-19T21:20:49.308Z,5.50
2019-03-19T21:23:18.765Z,4.73
2019-03-19T21:25:48.225Z,5.37
2019-03-19T21:28:17.692Z,5.03
2019-03-19T21:30:47.155Z,4.40
2019-03-19T21:33:16.630Z,5.17
2019-03-19T21:35:46.086Z,4.10
2019-03-19T21:38:15.558Z,4.10
2019-03-19T21:40:44.999Z,4.47
2019-03-19T21:43:14.533Z,4.93
2019-03-19T21:45:43.978Z,4.63
2019-03-19T21:48:13.442Z,4.67
2019-03-19T21:50:42.909Z,5.10
2019-03-19T21:53:12.388Z,4.87
2019-03-19T21:55:41.835Z,4.57
2019-03-19T21:58:11.311Z,4.53
2019-03-19T22:00:40.804Z,4.60
2019-03-19T22:03:10.611Z,4.60
2019-03-19T22:05:40.093Z,5.13
2019-03-19T22:08:09.559Z,5.10
2019-03-19T22:10:39.338Z,5.10
2019-03-19T22:13:08.901Z,5.23
2019-03-19T22:15:38.372Z,5.20
2019-03-19T22:18:07.848Z,4.60
2019-03-19T22:20:37.291Z,4.90
2019-03-19T22:23:06.799Z,4.50
2019-03-19T22:25:36.427Z,4.50
2019-03-19T22:28:06.306Z,4.70
2019-03-19T22:30:36.130Z,5.50
2019-03-19T22:33:05.624Z,5.90
2019-03-19T22:35:35.436Z,5.17
2019-03-19T22:38:05.131Z,4.33
2019-03-19T22:40:34.935Z,5.13
2019-03-19T22:43:04.395Z,5.00
2019-03-19T22:45:33.862Z,4.10
2019-03-19T22:48:03.321Z,4.83
2019-03-19T22:50:32.790Z,4.70
2019-03-19T22:53:02.257Z,5.10
2019-03-19T22:55:31.736Z,4.47
2019-03-19T22:58:01.213Z,5.53
2019-03-19T23:00:38.235Z,4.37
2019-03-19T23:03:08.149Z,5.00
2019-03-19T23:05:37.620Z,7.80
2019-03-19T23:08:07.132Z,8.43
2019-03-19T23:10:36.911Z,5.67
2019-03-19T23:13:06.426Z,5.10
2019-03-19T23:15:36.219Z,5.40
2019-03-19T23:18:05.665Z,4.40
2019-03-19T23:20:35.158Z,4.63
2019-03-19T23:23:05.044Z,5.13
2019-03-19T23:25:34.503Z,4.50
2019-03-19T23:28:04.029Z,4.50
2019-03-19T23:30:33.944Z,4.33
2019-03-19T23:33:03.562Z,4.90
2019-03-19T23:35:33.265Z,4.57
2019-03-19T23:38:02.721Z,4.20
2019-03-19T23:40:32.171Z,4.30
2019-03-19T23:43:01.913Z,4.30
2019-03-19T23:45:31.389Z,4.70
2019-03-19T23:48:00.910Z,3.90
2019-03-19T23:50:30.654Z,4.93
2019-03-19T23:53:00.118Z,4.10
2019-03-19T23:55:29.582Z,4.10
2019-03-19T23:57:59.044Z,3.80
